createdAt,value
2018-04-08T00:00:08.152Z,19.96
2018-04-08T00:02:36.543Z,19.42
2018-04-08T00:05:04.927Z,19.17
2018-04-08T00:07:33.302Z,19.15
2018-04-08T00:10:01.671Z,19.59
2018-04-08T00:12:30.307Z,19.23
2018-04-08T00:14:58.680Z,19.12
2018-04-08T00:17:27.081Z,18.92
2018-04-08T00:19:55.448Z,19.93
2018-04-08T00:22:24.708Z,19.55
2018-04-08T00:24:53.167Z,19.69
2018-04-08T00:27:21.564Z,19.47
2018-04-08T00:29:49.928Z,19.50
2018-04-08T00:32:18.294Z,20.16
2018-04-08T00:34:46.674Z,19.76
2018-04-08T00:37:15.160Z,19.09
2018-04-08T00:39:43.554Z,19.35
2018-04-08T00:42:11.915Z,19.84
2018-04-08T00:44:40.294Z,19.11
2018-04-08T00:47:08.676Z,19.92
2018-04-08T00:49:37.192Z,19.19
2018-04-08T00:52:05.555Z,19.92
2018-04-08T00:54:33.948Z,20.14
2018-04-08T00:57:02.043Z,19.24
2018-04-08T00:59:32.047Z,18.58
2018-04-08T01:02:07.677Z,19.36
2018-04-08T01:04:35.752Z,19.55
2018-04-08T01:07:06.803Z,19.84
2018-04-08T01:09:34.876Z,19.14
2018-04-08T01:12:07.928Z,19.45
2018-04-08T01:14:36.320Z,19.59
2018-04-08T01:17:04.463Z,18.57
2018-04-08T01:19:45.757Z,18.98
2018-04-08T01:22:19.927Z,19.16
2018-04-08T01:24:48.295Z,19.03
2018-04-08T01:27:17.776Z,19.76
2018-04-08T01:29:46.145Z,18.89
2018-04-08T01:32:14.518Z,18.61
2018-04-08T01:34:42.921Z,19.18
2018-04-08T01:37:11.371Z,19.44
2018-04-08T01:39:39.751Z,19.29
2018-04-08T01:42:08.192Z,18.82
2018-04-08T01:44:36.555Z,19.13
2018-04-08T01:47:04.972Z,19.26
2018-04-08T01:49:33.377Z,19.05
2018-04-08T01:52:01.742Z,18.60
2018-04-08T01:54:30.134Z,18.56
2018-04-08T01:56:58.529Z,18.83
2018-04-08T01:59:26.959Z,18.50
2018-04-08T02:01:55.326Z,19.12
2018-04-08T02:04:23.720Z,18.76
2018-04-08T02:06:52.204Z,18.84
2018-04-08T02:09:20.616Z,18.39
2018-04-08T02:11:49.055Z,18.34
2018-04-08T02:14:17.427Z,18.60
2018-04-08T02:16:45.820Z,18.63
2018-04-08T02:19:14.189Z,18.37
2018-04-08T02:21:42.709Z,18.53
2018-04-08T02:24:11.104Z,18.77
2018-04-08T02:26:39.525Z,18.72
2018-04-08T02:29:07.881Z,18.58
2018-04-08T02:31:36.325Z,18.93
2018-04-08T02:34:04.689Z,18.72
2018-04-08T02:36:33.120Z,19.18
2018-04-08T02:39:01.521Z,19.49
2018-04-08T02:41:29.888Z,19.76
2018-04-08T02:43:58.280Z,19.47
2018-04-08T02:46:26.702Z,19.45
2018-04-08T02:48:55.096Z,19.29
2018-04-08T02:51:23.456Z,18.65
2018-04-08T02:53:51.892Z,19.50
2018-04-08T02:56:20.263Z,17.87
2018-04-08T02:58:48.649Z,17.88
2018-04-08T03:01:17.384Z,17.99
2018-04-08T03:03:45.789Z,17.29
2018-04-08T03:06:14.198Z,17.40
2018-04-08T03:08:42.591Z,18.11
2018-04-08T03:11:10.987Z,18.10
2018-04-08T03:13:39.449Z,17.49
2018-04-08T03:16:07.824Z,18.10
2018-04-08T03:18:36.187Z,16.88
2018-04-08T03:21:04.595Z,17.85
2018-04-08T03:23:32.961Z,17.17
2018-04-08T03:26:01.481Z,16.69
2018-04-08T03:28:29.871Z,17.47
2018-04-08T03:30:58.299Z,17.38
2018-04-08T03:33:26.693Z,17.56
2018-04-08T03:35:55.056Z,18.07
2018-04-08T03:38:23.409Z,18.07
2018-04-08T03:40:51.770Z,18.84
2018-04-08T03:43:20.144Z,18.82
2018-04-08T03:45:48.527Z,18.78
2018-04-08T03:48:16.955Z,18.55
2018-04-08T03:50:45.335Z,18.27
2018-04-08T03:53:13.712Z,18.38
2018-04-08T03:55:42.070Z,18.49
2018-04-08T03:58:10.427Z,18.46
2018-04-08T04:00:38.844Z,18.26
2018-04-08T04:03:07.196Z,17.92
2018-04-08T04:05:35.548Z,17.84
2018-04-08T04:08:03.912Z,17.87
2018-04-08T04:10:32.300Z,17.72
2018-04-08T04:13:00.704Z,17.64
2018-04-08T04:15:29.067Z,17.42
2018-04-08T04:17:57.445Z,16.68
2018-04-08T04:20:38.370Z,17.01
2018-04-08T04:23:18.544Z,17.20
2018-04-08T04:25:55.679Z,16.92
2018-04-08T04:28:24.098Z,16.70
2018-04-08T04:30:52.471Z,16.53
2018-04-08T04:33:20.894Z,16.58
2018-04-08T04:35:49.288Z,16.72
2018-04-08T04:38:17.687Z,16.53
2018-04-08T04:40:46.104Z,16.45
2018-04-08T04:43:14.588Z,16.43
2018-04-08T04:45:43.057Z,16.30
2018-04-08T04:48:11.427Z,16.13
2018-04-08T04:50:39.826Z,16.03
2018-04-08T04:53:08.212Z,15.97
2018-04-08T04:55:36.609Z,16.03
2018-04-08T04:58:05.000Z,15.83
2018-04-08T05:00:33.396Z,15.83
2018-04-08T05:03:01.830Z,15.99
2018-04-08T05:05:30.219Z,16.38
2018-04-08T05:07:58.632Z,16.32
2018-04-08T05:10:27.009Z,16.44
2018-04-08T05:12:55.571Z,16.35
2018-04-08T05:15:23.964Z,16.33
2018-04-08T05:17:52.362Z,16.40
2018-04-08T05:20:20.820Z,16.18
2018-04-08T05:22:49.200Z,16.52
2018-04-08T05:25:17.618Z,16.13
2018-04-08T05:27:46.002Z,15.88
2018-04-08T05:30:14.376Z,16.44
2018-04-08T05:32:42.866Z,16.31
2018-04-08T05:35:11.289Z,16.66
2018-04-08T05:37:39.689Z,16.91
2018-04-08T05:40:08.060Z,17.14
2018-04-08T05:42:36.660Z,16.95
2018-04-08T05:45:05.144Z,16.21
2018-04-08T05:47:33.500Z,16.84
2018-04-08T05:50:01.989Z,17.09
2018-04-08T05:52:30.363Z,17.69
2018-04-08T05:54:58.762Z,17.74
2018-04-08T05:57:27.217Z,17.71
2018-04-08T05:59:55.689Z,18.13
2018-04-08T06:02:24.097Z,18.43
2018-04-08T06:04:52.549Z,18.61
2018-04-08T06:07:20.924Z,18.88
2018-04-08T06:09:49.296Z,18.99
2018-04-08T06:12:17.689Z,19.28
2018-04-08T06:14:46.176Z,19.60
2018-04-08T06:17:14.639Z,19.87
2018-04-08T06:19:43.106Z,19.93
2018-04-08T06:22:11.509Z,20.12
2018-04-08T06:24:39.903Z,21.23
2018-04-08T06:27:08.291Z,23.09
2018-04-08T06:29:36.686Z,25.01
2018-04-08T06:32:05.068Z,26.02
2018-04-08T06:34:33.543Z,26.90
2018-04-08T06:37:02.038Z,26.87
2018-04-08T06:39:30.487Z,28.93
2018-04-08T06:41:59.038Z,29.42
2018-04-08T06:44:28.307Z,30.24
2018-04-08T06:46:56.720Z,29.99
2018-04-08T06:49:25.164Z,30.57
2018-04-08T06:51:54.400Z,31.42
2018-04-08T06:54:22.776Z,32.50
2018-04-08T06:56:51.342Z,31.48
2018-04-08T06:59:19.744Z,33.43
2018-04-08T07:01:48.129Z,34.55
2018-04-08T07:04:16.546Z,35.59
2018-04-08T07:06:44.940Z,35.80
2018-04-08T07:09:13.391Z,35.32
2018-04-08T07:11:41.764Z,35.54
2018-04-08T07:14:10.168Z,35.40
2018-04-08T07:16:38.538Z,37.01
2018-04-08T07:19:06.957Z,37.45
2018-04-08T07:21:35.335Z,38.34
2018-04-08T07:24:03.723Z,38.22
2018-04-08T07:26:32.155Z,38.51
2018-04-08T07:29:00.789Z,37.88
2018-04-08T07:31:29.164Z,38.10
2018-04-08T07:33:57.536Z,39.39
2018-04-08T07:36:25.936Z,41.16
2018-04-08T07:38:54.511Z,39.94
2018-04-08T07:41:22.896Z,38.54
2018-04-08T07:43:51.256Z,38.50
2018-04-08T07:46:19.624Z,36.79
2018-04-08T07:48:48.019Z,36.63
2018-04-08T07:51:16.445Z,36.76
2018-04-08T07:53:44.809Z,37.74
2018-04-08T07:56:13.213Z,37.45
2018-04-08T07:58:41.607Z,37.18
2018-04-08T08:01:09.977Z,37.72
2018-04-08T08:03:38.467Z,38.70
2018-04-08T08:06:06.839Z,38.70
2018-04-08T08:08:35.241Z,39.25
2018-04-08T08:11:03.639Z,39.71
2018-04-08T08:13:32.940Z,38.72
2018-04-08T08:16:01.465Z,38.52
2018-04-08T08:18:30.062Z,38.35
2018-04-08T08:20:58.636Z,38.00
2018-04-08T08:23:27.070Z,38.21
2018-04-08T08:25:55.482Z,36.55
2018-04-08T08:28:24.035Z,36.95
2018-04-08T08:30:52.451Z,37.84
2018-04-08T08:33:20.811Z,37.15
2018-04-08T08:35:49.216Z,40.46
2018-04-08T08:38:17.582Z,40.88
2018-04-08T08:40:46.007Z,39.89
2018-04-08T08:43:14.425Z,38.43
2018-04-08T08:45:42.786Z,37.48
2018-04-08T08:48:11.309Z,37.33
2018-04-08T08:50:39.689Z,36.52
2018-04-08T08:53:08.109Z,37.27
2018-04-08T08:55:36.476Z,37.71
2018-04-08T08:58:04.846Z,36.85
2018-04-08T09:00:34.145Z,39.13
2018-04-08T09:03:02.646Z,38.74
2018-04-08T09:05:31.175Z,38.78
2018-04-08T09:07:59.606Z,38.56
2018-04-08T09:10:27.988Z,38.78
2018-04-08T09:12:56.412Z,37.04
2018-04-08T09:15:24.828Z,36.47
2018-04-08T09:17:53.214Z,36.38
2018-04-08T09:20:26.704Z,36.64
2018-04-08T09:22:57.699Z,37.56
2018-04-08T09:25:26.664Z,36.64
2018-04-08T09:27:58.804Z,38.25
2018-04-08T09:30:27.160Z,36.19
2018-04-08T09:32:55.556Z,37.12
2018-04-08T09:35:23.942Z,37.04
2018-04-08T09:37:52.311Z,37.45
2018-04-08T09:40:20.686Z,37.36
2018-04-08T09:42:49.051Z,38.00
2018-04-08T09:45:17.519Z,35.56
2018-04-08T09:47:45.904Z,36.31
2018-04-08T09:50:14.281Z,36.19
2018-04-08T09:52:42.647Z,36.61
2018-04-08T09:55:11.016Z,34.47
2018-04-08T09:57:41.261Z,35.59
2018-04-08T10:00:21.393Z,35.96
2018-04-08T10:02:55.583Z,37.25
2018-04-08T10:05:24.165Z,37.93
2018-04-08T10:07:52.532Z,37.95
2018-04-08T10:10:20.906Z,36.24
2018-04-08T10:12:49.352Z,36.78
2018-04-08T10:15:17.716Z,37.16
2018-04-08T10:17:46.246Z,36.14
2018-04-08T10:20:14.661Z,36.74
2018-04-08T10:22:43.151Z,37.75
2018-04-08T10:25:12.455Z,37.03
2018-04-08T10:27:40.933Z,38.19
2018-04-08T10:30:10.243Z,38.21
2018-04-08T10:32:38.618Z,37.99
2018-04-08T10:35:06.990Z,35.21
2018-04-08T10:37:35.386Z,36.70
2018-04-08T10:40:03.856Z,36.25
2018-04-08T10:42:32.288Z,37.05
2018-04-08T10:45:00.710Z,36.57
2018-04-08T10:47:29.196Z,37.37
2018-04-08T10:49:57.669Z,36.79
2018-04-08T10:52:26.065Z,38.86
2018-04-08T10:54:54.460Z,37.53
2018-04-08T10:57:22.904Z,38.11
2018-04-08T10:59:51.307Z,34.91
2018-04-08T11:02:19.861Z,35.27
2018-04-08T11:04:48.271Z,34.69
2018-04-08T11:07:16.683Z,33.52
2018-04-08T11:09:45.101Z,34.27
2018-04-08T11:12:13.515Z,32.82
2018-04-08T11:14:41.982Z,32.49
2018-04-08T11:17:10.370Z,32.31
2018-04-08T11:19:38.770Z,32.63
2018-04-08T11:22:07.182Z,31.77
2018-04-08T11:24:35.622Z,32.87
2018-04-08T11:27:04.020Z,32.03
2018-04-08T11:29:32.415Z,32.85
2018-04-08T11:32:00.998Z,33.54
2018-04-08T11:34:29.437Z,34.60
2018-04-08T11:36:59.785Z,34.49
2018-04-08T11:39:28.192Z,33.35
2018-04-08T11:41:57.000Z,33.30
2018-04-08T11:44:25.536Z,33.83
2018-04-08T11:46:53.944Z,32.38
2018-04-08T11:49:22.365Z,32.86
2018-04-08T11:51:50.752Z,33.31
2018-04-08T11:54:19.165Z,32.17
2018-04-08T11:56:48.564Z,31.97
2018-04-08T11:59:17.112Z,31.25
2018-04-08T12:01:45.536Z,32.58
2018-04-08T12:04:13.950Z,31.96
2018-04-08T12:06:42.479Z,32.11
2018-04-08T12:09:10.936Z,31.95
2018-04-08T12:11:39.334Z,32.35
2018-04-08T12:14:07.912Z,32.95
2018-04-08T12:16:36.334Z,32.21
2018-04-08T12:19:04.735Z,32.58
2018-04-08T12:21:33.164Z,31.61
2018-04-08T12:24:01.595Z,30.38
2018-04-08T12:26:31.564Z,30.72
2018-04-08T12:28:59.969Z,29.41
2018-04-08T12:31:28.350Z,29.75
2018-04-08T12:33:56.736Z,31.01
2018-04-08T12:36:25.104Z,30.89
2018-04-08T12:38:53.566Z,30.56
2018-04-08T12:41:21.927Z,29.45
2018-04-08T12:43:50.323Z,29.23
2018-04-08T12:46:18.851Z,30.69
2018-04-08T12:48:47.247Z,30.35
2018-04-08T12:51:15.716Z,29.53
2018-04-08T12:53:44.106Z,29.38
2018-04-08T12:56:12.486Z,29.13
2018-04-08T12:58:40.900Z,29.02
2018-04-08T13:01:09.496Z,28.94
2018-04-08T13:03:37.967Z,29.38
2018-04-08T13:06:06.352Z,30.02
2018-04-08T13:08:34.758Z,29.90
2018-04-08T13:11:03.164Z,30.67
2018-04-08T13:13:31.689Z,30.54
2018-04-08T13:16:00.152Z,29.63
2018-04-08T13:18:28.540Z,29.73
2018-04-08T13:20:56.941Z,29.56
2018-04-08T13:23:25.413Z,29.50
2018-04-08T13:25:53.824Z,29.51
2018-04-08T13:28:22.273Z,29.38
2018-04-08T13:30:50.682Z,30.00
2018-04-08T13:33:19.145Z,30.57
2018-04-08T13:35:47.636Z,30.19
2018-04-08T13:38:16.060Z,29.47
2018-04-08T13:40:44.611Z,28.89
2018-04-08T13:43:13.041Z,29.19
2018-04-08T13:45:41.501Z,29.13
2018-04-08T13:48:09.918Z,29.62
2018-04-08T13:50:38.369Z,29.74
2018-04-08T13:53:06.861Z,29.47
2018-04-08T13:55:35.342Z,29.76
2018-04-08T13:58:03.801Z,29.08
2018-04-08T14:00:32.270Z,29.22
2018-04-08T14:03:03.502Z,29.62
2018-04-08T14:05:31.947Z,30.31
2018-04-08T14:08:00.318Z,29.13
2018-04-08T14:10:28.712Z,29.50
2018-04-08T14:12:57.267Z,29.01
2018-04-08T14:15:25.664Z,28.38
2018-04-08T14:17:54.216Z,28.35
2018-04-08T14:20:22.645Z,28.63
2018-04-08T14:22:51.039Z,29.24
2018-04-08T14:25:19.491Z,29.28
2018-04-08T14:27:47.903Z,28.40
2018-04-08T14:30:16.452Z,29.02
2018-04-08T14:32:44.876Z,28.16
2018-04-08T14:35:13.279Z,28.45
2018-04-08T14:37:41.860Z,27.98
2018-04-08T14:40:10.297Z,28.68
2018-04-08T14:42:38.823Z,28.80
2018-04-08T14:45:07.390Z,29.02
2018-04-08T14:47:35.794Z,28.81
2018-04-08T14:50:04.189Z,28.54
2018-04-08T14:52:32.662Z,29.18
2018-04-08T14:55:01.316Z,28.39
2018-04-08T14:57:29.817Z,28.76
2018-04-08T14:59:58.247Z,28.74
2018-04-08T15:02:26.628Z,29.24
2018-04-08T15:04:55.063Z,29.16
2018-04-08T15:07:23.538Z,29.70
2018-04-08T15:09:52.024Z,29.39
2018-04-08T15:12:20.522Z,28.81
2018-04-08T15:14:48.940Z,29.05
2018-04-08T15:17:17.355Z,29.36
2018-04-08T15:19:45.863Z,29.48
2018-04-08T15:22:14.287Z,29.85
2018-04-08T15:24:42.767Z,30.12
2018-04-08T15:27:11.205Z,29.72
2018-04-08T15:29:39.586Z,29.80
2018-04-08T15:32:08.014Z,28.86
2018-04-08T15:34:36.395Z,29.04
2018-04-08T15:37:04.821Z,28.85
2018-04-08T15:39:33.229Z,28.62
2018-04-08T15:42:01.839Z,28.48
2018-04-08T15:44:30.269Z,27.97
2018-04-08T15:46:58.698Z,27.75
2018-04-08T15:49:27.094Z,27.90
2018-04-08T15:51:55.553Z,28.08
2018-04-08T15:54:24.424Z,27.98
2018-04-08T15:56:52.836Z,28.48
2018-04-08T15:59:21.313Z,28.77
2018-04-08T16:01:49.731Z,28.63
2018-04-08T16:04:18.148Z,27.58
2018-04-08T16:06:46.607Z,28.11
2018-04-08T16:09:15.175Z,28.01
2018-04-08T16:11:43.604Z,27.52
2018-04-08T16:14:11.999Z,28.14
2018-04-08T16:16:40.401Z,28.47
2018-04-08T16:19:08.792Z,28.01
2018-04-08T16:21:37.185Z,27.21
2018-04-08T16:24:05.590Z,27.25
2018-04-08T16:26:34.039Z,27.93
2018-04-08T16:29:02.451Z,27.19
2018-04-08T16:31:30.881Z,27.07
2018-04-08T16:33:59.284Z,27.42
2018-04-08T16:36:27.664Z,27.08
2018-04-08T16:38:56.070Z,26.59
2018-04-08T16:41:25.351Z,26.80
2018-04-08T16:43:53.816Z,27.10
2018-04-08T16:46:22.223Z,26.55
2018-04-08T16:48:50.680Z,26.80
2018-04-08T16:51:19.072Z,26.57
2018-04-08T16:53:47.459Z,27.00
2018-04-08T16:56:16.052Z,27.16
2018-04-08T16:58:44.447Z,27.50
2018-04-08T17:01:12.901Z,27.48
2018-04-08T17:03:42.514Z,27.25
2018-04-08T17:06:10.857Z,27.08
2018-04-08T17:08:39.577Z,27.21
2018-04-08T17:11:07.932Z,27.23
2018-04-08T17:13:36.297Z,26.96
2018-04-08T17:16:04.717Z,26.98
2018-04-08T17:18:33.152Z,26.97
2018-04-08T17:21:01.534Z,26.63
2018-04-08T17:23:30.178Z,26.56
2018-04-08T17:25:58.558Z,26.34
2018-04-08T17:28:26.928Z,25.33
2018-04-08T17:30:55.437Z,24.98
2018-04-08T17:33:23.833Z,24.75
2018-04-08T17:35:52.332Z,24.76
2018-04-08T17:38:20.716Z,24.58
2018-04-08T17:40:49.100Z,24.85
2018-04-08T17:43:20.031Z,24.76
2018-04-08T17:45:48.499Z,24.56
2018-04-08T17:48:16.933Z,24.33
2018-04-08T17:50:45.316Z,23.75
2018-04-08T17:53:13.748Z,23.52
2018-04-08T17:55:42.917Z,23.46
2018-04-08T17:58:11.318Z,23.63
2018-04-08T18:00:39.694Z,23.85
2018-04-08T18:03:08.081Z,23.51
2018-04-08T18:05:36.578Z,23.68
2018-04-08T18:08:04.980Z,23.52
2018-04-08T18:10:33.433Z,23.08
2018-04-08T18:13:01.822Z,22.63
2018-04-08T18:15:30.243Z,22.68
2018-04-08T18:17:58.726Z,22.61
2018-04-08T18:20:27.130Z,22.41
2018-04-08T18:22:55.601Z,22.43
2018-04-08T18:25:24.064Z,22.53
2018-04-08T18:27:52.675Z,21.89
2018-04-08T18:30:21.878Z,21.93
2018-04-08T18:32:50.421Z,21.73
2018-04-08T18:35:18.828Z,21.19
2018-04-08T18:37:47.264Z,21.07
2018-04-08T18:40:15.657Z,21.16
2018-04-08T18:42:44.119Z,21.26
2018-04-08T18:45:12.543Z,21.30
2018-04-08T18:47:40.923Z,21.34
2018-04-08T18:50:09.396Z,21.18
2018-04-08T18:52:37.784Z,20.93
2018-04-08T18:55:06.489Z,21.00
2018-04-08T18:57:35.361Z,20.95
2018-04-08T19:00:04.013Z,20.97
2018-04-08T19:02:32.400Z,20.94
2018-04-08T19:05:00.804Z,20.77
2018-04-08T19:07:33.359Z,20.54
2018-04-08T19:10:02.799Z,20.68
2018-04-08T19:12:31.444Z,20.61
2018-04-08T19:15:05.844Z,20.78
2018-04-08T19:20:49.857Z,20.63
2018-04-08T19:23:18.284Z,20.33
2018-04-08T19:25:46.648Z,20.30
2018-04-08T19:28:15.059Z,20.07
2018-04-08T19:30:53.734Z,19.77
2018-04-08T19:33:22.438Z,19.99
2018-04-08T19:35:50.935Z,19.96
2018-04-08T19:38:19.349Z,19.96
2018-04-08T19:40:47.946Z,19.76
2018-04-08T19:43:16.410Z,19.25
2018-04-08T19:45:44.811Z,19.93
2018-04-08T19:48:13.230Z,19.86
2018-04-08T19:50:41.628Z,19.50
2018-04-08T19:53:10.229Z,19.41
2018-04-08T19:55:38.648Z,19.42
2018-04-08T19:58:07.237Z,19.26
2018-04-08T20:00:35.795Z,19.16
2018-04-08T20:03:05.510Z,19.10
2018-04-08T20:05:34.159Z,19.38
2018-04-08T20:08:03.412Z,19.35
2018-04-08T20:10:31.965Z,19.06
2018-04-08T20:13:00.875Z,18.92
2018-04-08T20:15:30.344Z,18.98
2018-04-08T20:17:58.821Z,19.36
2018-04-08T20:20:27.243Z,19.29
2018-04-08T20:22:55.640Z,19.24
2018-04-08T20:25:24.112Z,19.19
2018-04-08T20:27:52.646Z,19.10
2018-04-08T20:30:21.494Z,19.08
2018-04-08T20:32:49.929Z,19.29
2018-04-08T20:35:18.289Z,19.24
2018-04-08T20:37:46.644Z,19.17
2018-04-08T20:40:15.065Z,19.00
2018-04-08T20:42:43.461Z,19.18
2018-04-08T20:45:11.876Z,18.98
2018-04-08T20:47:40.252Z,18.85
2018-04-08T20:50:08.706Z,18.89
2018-04-08T20:52:37.288Z,18.84
2018-04-08T20:55:07.006Z,18.99
2018-04-08T20:57:35.452Z,18.97
2018-04-08T21:00:05.874Z,18.94
2018-04-08T21:02:34.633Z,19.05
2018-04-08T21:05:03.050Z,18.89
2018-04-08T21:07:31.603Z,18.85
2018-04-08T21:12:41.199Z,18.61
2018-04-08T21:15:09.605Z,18.67
2018-04-08T21:17:37.958Z,18.33
2018-04-08T21:20:07.228Z,18.15
2018-04-08T21:22:35.750Z,18.53
2018-04-08T21:25:04.180Z,18.32
2018-04-08T21:27:32.570Z,17.95
2018-04-08T21:30:00.967Z,18.37
2018-04-08T21:32:29.600Z,18.36
2018-04-08T21:34:58.599Z,18.12
2018-04-08T21:37:27.248Z,17.99
2018-04-08T21:39:55.863Z,17.99
2018-04-08T21:42:24.298Z,18.20
2018-04-08T21:44:52.676Z,18.16
2018-04-08T21:47:21.083Z,17.72
2018-04-08T21:49:49.484Z,17.93
2018-04-08T21:52:18.033Z,17.87
2018-04-08T21:54:46.418Z,17.42
2018-04-08T21:57:14.815Z,17.71
2018-04-08T21:59:43.192Z,17.64
2018-04-08T22:02:12.263Z,17.74
2018-04-08T22:04:40.663Z,17.70
2018-04-08T22:07:09.051Z,17.47
2018-04-08T22:09:37.475Z,17.54
2018-04-08T22:12:05.868Z,17.36
2018-04-08T22:14:34.311Z,16.96
2018-04-08T22:17:02.735Z,16.93
2018-04-08T22:19:31.169Z,17.48
2018-04-08T22:21:59.708Z,17.26
2018-04-08T22:24:28.065Z,17.22
2018-04-08T22:26:56.502Z,17.22
2018-04-08T22:29:24.877Z,17.14
2018-04-08T22:31:53.241Z,17.45
2018-04-08T22:34:21.780Z,17.24
2018-04-08T22:36:50.145Z,17.01
2018-04-08T22:39:18.504Z,17.03
2018-04-08T22:41:46.891Z,17.15
2018-04-08T22:44:15.294Z,17.09
2018-04-08T22:46:43.692Z,16.97
2018-04-08T22:49:12.148Z,16.97
2018-04-08T22:51:40.677Z,17.18
2018-04-08T22:54:09.053Z,17.30
2018-04-08T22:56:37.424Z,17.14
2018-04-08T22:59:05.813Z,17.18
2018-04-08T23:01:34.209Z,17.22
2018-04-08T23:04:02.657Z,16.77
2018-04-08T23:06:31.116Z,16.56
2018-04-08T23:08:59.478Z,16.68
2018-04-08T23:11:27.925Z,17.01
2018-04-08T23:13:56.285Z,16.48
2018-04-08T23:16:24.712Z,16.35
2018-04-08T23:18:53.069Z,16.53
2018-04-08T23:21:21.424Z,16.93
2018-04-08T23:23:49.796Z,17.01
2018-04-08T23:26:18.160Z,16.94
2018-04-08T23:28:46.583Z,17.00
2018-04-08T23:31:15.053Z,16.96
2018-04-08T23:33:43.416Z,16.72
2018-04-08T23:36:11.773Z,16.98
2018-04-08T23:38:40.224Z,16.92
2018-04-08T23:41:08.751Z,16.81
2018-04-08T23:43:37.114Z,16.64
2018-04-08T23:46:05.475Z,16.34
2018-04-08T23:48:33.832Z,16.54
2018-04-08T23:51:02.255Z,16.54
2018-04-08T23:53:30.635Z,16.29
2018-04-08T23:55:59.099Z,16.10
2018-04-08T23:58:27.483Z,16.52
